Clifton, Virginia
Current Conditions -  °F | °C
As of 1:45 PM on Tuesday 27 Jan 2015 (Local Time) from KHEF Reporting Station
Broken Clouds Broken Clouds  
Wind Chill: 24°   Ceiling: 4400
Heat Index: 34°   Visibility: 10mi
Dew Point: 27°   Wind: 16mph
Humidity: 75%   Direction: 350°N
Pressure: 29.82"   Gusts: 23mph
Location:  38.78°N, 77.39°W
Report Text: KHEF 271845Z 35014G20KT 10SM SCT027 SCT044 BKN044 01/M03 A2982 RMK 1/8 IN. DRY SN OVER PATCHY ICE ALL TWY/APRONS
Loading
Personal Weather Stations






























Interactive Weather Map New forecast layout! Learn more

10-Day Weather Forecast

Advertisements
Track Severe Weather on mobile